SBJP/JPA METAR and TAF weather

Enter ICAO airport designator
Station Type Date Time Source
SBJP METAR 2021/05/14 14:00 UTC NOAA

SBJP 141400Z 16009KT 6000 -RA FEW005 BKN012 BKN020 24/23 Q1014 RERA


Station Type Date Time Source
SBJP Decoded METAR 2021/05/14 14:00 UTC NOAA

Joao Pessoa, Brazil (SBJP) 07-06S 034-52W
May 14, 2021 - 10:00 AM EDT / 2021.05.14 1400 UTC
Wind: from the SSE (160 degrees) at 10 MPH (9 KT):0
Visibility: 3 mile(s):0
Sky conditions: mostly cloudy
Weather: light rain
Temperature: 75 F (24 C)
Dew Point: 73 F (23 C)
Relative Humidity: 94%
Pressure (altimeter): 29.94 in. Hg (1014 hPa)
ob: SBJP 141400Z 16009KT 6000 -RA FEW005 BKN012 BKN020 24/23 Q1014 RERA
cycle: 14

Station Type Date Time Source
SBJP TAF 2021/05/14 12:09 UTC NOAA

TAF TAF SBJP 140900Z 1412/1512 18005KT 8000 SCT010 TX29/1416Z TN22/1508Z
BECMG 1414/1416 13010KT BKN025
BECMG 1500/1502 18005KT SCT020
RMK PHD

Example: see airport list